Terminal Aerodrome Forecast
Issued by NWS

Home | Current Version | Previous Version | Text Only | Print | Product List | Glossary On
Versions: 1 2 3 4 5 6 7 8 9 10 11 12 13 14 15 16
000
FTUS43 KMPX 180500
TAFAXN
TAF
KAXN 180533Z 1806/1906 08006KT P6SM SCT004
     FM180630 08006KT 6SM BR OVC004
     FM180900 10006KT 2SM BR OVC002
     FM181400 12008KT 6SM BR SCT004 BKN009
     FM181600 14012KT P6SM SCT012
     FM181700 16014G20KT P6SM SCT035=

USA.gov is the U.S. government's official web portal to all federal, state and local government web resources and services.